sensor_id;sensor_type;location;lat;lon;timestamp;P1;durP1;ratioP1;P2;durP2;ratioP2
72771;SDS011;60894;42.544;1.516;2023-12-04T00:00:36;13.17;;;3.50;;
72771;SDS011;60894;42.544;1.516;2023-12-04T00:03:03;11.07;;;3.45;;
72771;SDS011;60894;42.544;1.516;2023-12-04T00:05:30;8.80;;;3.28;;
72771;SDS011;60894;42.544;1.516;2023-12-04T00:07:58;10.60;;;3.92;;
72771;SDS011;60894;42.544;1.516;2023-12-04T00:10:25;11.55;;;4.72;;
72771;SDS011;60894;42.544;1.516;2023-12-04T00:12:53;14.03;;;4.77;;
72771;SDS011;60894;42.544;1.516;2023-12-04T00:15:20;11.23;;;4.55;;
72771;SDS011;60894;42.544;1.516;2023-12-04T00:17:47;12.77;;;4.85;;
72771;SDS011;60894;42.544;1.516;2023-12-04T00:20:14;12.63;;;4.40;;
72771;SDS011;60894;42.544;1.516;2023-12-04T00:22:41;11.52;;;4.65;;
72771;SDS011;60894;42.544;1.516;2023-12-04T00:25:08;10.67;;;4.30;;
72771;SDS011;60894;42.544;1.516;2023-12-04T00:27:35;10.90;;;3.92;;
72771;SDS011;60894;42.544;1.516;2023-12-04T00:30:04;13.23;;;4.50;;
72771;SDS011;60894;42.544;1.516;2023-12-04T00:32:32;10.95;;;3.97;;
72771;SDS011;60894;42.544;1.516;2023-12-04T00:34:59;9.80;;;4.10;;
72771;SDS011;60894;42.544;1.516;2023-12-04T00:37:26;10.33;;;4.10;;
72771;SDS011;60894;42.544;1.516;2023-12-04T00:39:53;11.85;;;4.18;;
72771;SDS011;60894;42.544;1.516;2023-12-04T00:42:20;11.77;;;4.50;;
72771;SDS011;60894;42.544;1.516;2023-12-04T00:44:47;10.98;;;4.88;;
72771;SDS011;60894;42.544;1.516;2023-12-04T00:47:15;11.20;;;4.18;;
72771;SDS011;60894;42.544;1.516;2023-12-04T00:49:42;11.33;;;3.57;;
72771;SDS011;60894;42.544;1.516;2023-12-04T00:52:09;12.15;;;3.65;;
72771;SDS011;60894;42.544;1.516;2023-12-04T00:54:38;11.27;;;3.80;;
72771;SDS011;60894;42.544;1.516;2023-12-04T00:57:06;10.48;;;4.10;;
72771;SDS011;60894;42.544;1.516;2023-12-04T00:59:33;10.32;;;4.30;;
72771;SDS011;60894;42.544;1.516;2023-12-04T01:02:00;10.33;;;3.77;;
72771;SDS011;60894;42.544;1.516;2023-12-04T01:04:28;10.50;;;3.67;;
72771;SDS011;60894;42.544;1.516;2023-12-04T01:06:55;9.68;;;3.75;;
72771;SDS011;60894;42.544;1.516;2023-12-04T01:09:22;8.20;;;3.45;;
72771;SDS011;60894;42.544;1.516;2023-12-04T01:11:49;10.98;;;3.55;;
72771;SDS011;60894;42.544;1.516;2023-12-04T01:14:16;18.03;;;5.77;;
72771;SDS011;60894;42.544;1.516;2023-12-04T01:16:43;18.00;;;6.13;;
72771;SDS011;60894;42.544;1.516;2023-12-04T01:19:10;12.00;;;3.85;;
72771;SDS011;60894;42.544;1.516;2023-12-04T01:21:39;12.60;;;4.43;;
72771;SDS011;60894;42.544;1.516;2023-12-04T01:24:06;8.75;;;3.47;;
72771;SDS011;60894;42.544;1.516;2023-12-04T01:26:33;9.03;;;3.60;;
72771;SDS011;60894;42.544;1.516;2023-12-04T01:29:00;9.13;;;3.17;;
72771;SDS011;60894;42.544;1.516;2023-12-04T01:31:27;11.43;;;3.60;;
72771;SDS011;60894;42.544;1.516;2023-12-04T01:33:54;10.50;;;3.53;;
72771;SDS011;60894;42.544;1.516;2023-12-04T01:36:21;9.48;;;3.08;;
72771;SDS011;60894;42.544;1.516;2023-12-04T01:38:49;8.57;;;3.10;;
72771;SDS011;60894;42.544;1.516;2023-12-04T01:41:16;7.90;;;2.70;;
72771;SDS011;60894;42.544;1.516;2023-12-04T01:43:43;9.90;;;3.50;;
72771;SDS011;60894;42.544;1.516;2023-12-04T01:46:10;11.18;;;3.40;;
72771;SDS011;60894;42.544;1.516;2023-12-04T01:48:37;8.98;;;3.08;;
72771;SDS011;60894;42.544;1.516;2023-12-04T01:51:06;8.03;;;2.63;;
72771;SDS011;60894;42.544;1.516;2023-12-04T01:53:36;8.50;;;3.30;;
72771;SDS011;60894;42.544;1.516;2023-12-04T01:56:07;9.02;;;3.30;;
72771;SDS011;60894;42.544;1.516;2023-12-04T01:58:35;8.85;;;3.25;;
72771;SDS011;60894;42.544;1.516;2023-12-04T02:01:04;7.57;;;2.95;;
72771;SDS011;60894;42.544;1.516;2023-12-04T02:03:31;9.87;;;3.10;;
72771;SDS011;60894;42.544;1.516;2023-12-04T02:05:59;7.82;;;2.90;;
72771;SDS011;60894;42.544;1.516;2023-12-04T02:08:27;9.10;;;2.85;;
72771;SDS011;60894;42.544;1.516;2023-12-04T02:10:55;9.05;;;2.80;;
72771;SDS011;60894;42.544;1.516;2023-12-04T02:13:23;8.15;;;2.63;;
72771;SDS011;60894;42.544;1.516;2023-12-04T02:15:51;13.77;;;2.50;;
72771;SDS011;60894;42.544;1.516;2023-12-04T02:18:20;8.13;;;2.38;;
72771;SDS011;60894;42.544;1.516;2023-12-04T02:20:48;8.68;;;3.00;;
72771;SDS011;60894;42.544;1.516;2023-12-04T02:23:15;7.90;;;2.55;;
72771;SDS011;60894;42.544;1.516;2023-12-04T02:25:43;7.70;;;2.25;;
72771;SDS011;60894;42.544;1.516;2023-12-04T02:28:11;6.67;;;2.37;;
72771;SDS011;60894;42.544;1.516;2023-12-04T02:30:42;7.38;;;2.47;;
72771;SDS011;60894;42.544;1.516;2023-12-04T02:33:11;6.85;;;2.45;;
72771;SDS011;60894;42.544;1.516;2023-12-04T02:35:39;6.85;;;2.50;;
72771;SDS011;60894;42.544;1.516;2023-12-04T02:38:08;4.38;;;1.90;;
72771;SDS011;60894;42.544;1.516;2023-12-04T02:40:36;7.67;;;2.60;;
72771;SDS011;60894;42.544;1.516;2023-12-04T02:43:05;9.23;;;2.60;;
72771;SDS011;60894;42.544;1.516;2023-12-04T02:45:32;6.90;;;2.30;;
72771;SDS011;60894;42.544;1.516;2023-12-04T02:47:59;6.97;;;2.47;;
72771;SDS011;60894;42.544;1.516;2023-12-04T02:50:26;6.82;;;2.40;;
72771;SDS011;60894;42.544;1.516;2023-12-04T02:52:53;6.43;;;2.30;;
72771;SDS011;60894;42.544;1.516;2023-12-04T02:55:20;5.68;;;2.38;;
72771;SDS011;60894;42.544;1.516;2023-12-04T02:57:47;6.50;;;2.30;;
72771;SDS011;60894;42.544;1.516;2023-12-04T03:00:16;5.65;;;2.25;;
72771;SDS011;60894;42.544;1.516;2023-12-04T03:02:44;4.50;;;1.85;;
72771;SDS011;60894;42.544;1.516;2023-12-04T03:05:13;6.37;;;2.10;;
72771;SDS011;60894;42.544;1.516;2023-12-04T03:07:40;5.78;;;2.00;;
72771;SDS011;60894;42.544;1.516;2023-12-04T03:10:06;6.88;;;2.30;;
72771;SDS011;60894;42.544;1.516;2023-12-04T03:12:34;6.40;;;2.25;;
72771;SDS011;60894;42.544;1.516;2023-12-04T03:15:04;6.57;;;2.47;;
72771;SDS011;60894;42.544;1.516;2023-12-04T03:17:33;7.63;;;2.10;;
72771;SDS011;60894;42.544;1.516;2023-12-04T03:20:04;7.50;;;2.60;;
72771;SDS011;60894;42.544;1.516;2023-12-04T03:22:33;7.35;;;2.65;;
72771;SDS011;60894;42.544;1.516;2023-12-04T03:25:03;6.90;;;2.30;;
72771;SDS011;60894;42.544;1.516;2023-12-04T03:27:37;6.70;;;1.90;;
72771;SDS011;60894;42.544;1.516;2023-12-04T03:30:05;6.05;;;2.13;;
72771;SDS011;60894;42.544;1.516;2023-12-04T03:32:37;7.75;;;2.70;;
72771;SDS011;60894;42.544;1.516;2023-12-04T03:35:04;6.45;;;2.25;;
72771;SDS011;60894;42.544;1.516;2023-12-04T03:37:31;9.48;;;2.25;;
72771;SDS011;60894;42.544;1.516;2023-12-04T03:39:58;7.70;;;2.37;;
72771;SDS011;60894;42.544;1.516;2023-12-04T03:42:25;7.00;;;2.13;;
72771;SDS011;60894;42.544;1.516;2023-12-04T03:44:52;4.95;;;1.77;;
72771;SDS011;60894;42.544;1.516;2023-12-04T03:47:19;5.05;;;2.20;;
72771;SDS011;60894;42.544;1.516;2023-12-04T03:49:47;6.53;;;2.13;;
72771;SDS011;60894;42.544;1.516;2023-12-04T03:52:16;5.13;;;1.60;;
72771;SDS011;60894;42.544;1.516;2023-12-04T03:54:43;5.47;;;1.50;;
72771;SDS011;60894;42.544;1.516;2023-12-04T03:57:10;4.20;;;1.35;;
72771;SDS011;60894;42.544;1.516;2023-12-04T03:59:37;5.78;;;1.50;;
72771;SDS011;60894;42.544;1.516;2023-12-04T04:02:04;4.50;;;1.33;;
72771;SDS011;60894;42.544;1.516;2023-12-04T04:04:31;5.03;;;1.60;;
72771;SDS011;60894;42.544;1.516;2023-12-04T04:06:59;4.78;;;1.65;;
72771;SDS011;60894;42.544;1.516;2023-12-04T04:09:26;5.75;;;1.80;;
72771;SDS011;60894;42.544;1.516;2023-12-04T04:11:53;3.92;;;1.42;;
72771;SDS011;60894;42.544;1.516;2023-12-04T04:14:20;4.90;;;1.30;;
72771;SDS011;60894;42.544;1.516;2023-12-04T04:16:48;3.57;;;1.33;;
72771;SDS011;60894;42.544;1.516;2023-12-04T04:19:15;3.75;;;1.45;;
72771;SDS011;60894;42.544;1.516;2023-12-04T04:21:44;3.97;;;1.20;;
72771;SDS011;60894;42.544;1.516;2023-12-04T04:24:15;4.20;;;1.20;;
72771;SDS011;60894;42.544;1.516;2023-12-04T04:26:41;4.72;;;1.70;;
72771;SDS011;60894;42.544;1.516;2023-12-04T04:29:08;5.37;;;1.90;;
72771;SDS011;60894;42.544;1.516;2023-12-04T04:31:35;5.60;;;2.30;;
72771;SDS011;60894;42.544;1.516;2023-12-04T04:34:02;7.30;;;2.30;;
72771;SDS011;60894;42.544;1.516;2023-12-04T04:36:29;6.80;;;1.70;;
72771;SDS011;60894;42.544;1.516;2023-12-04T04:38:56;4.65;;;1.63;;
72771;SDS011;60894;42.544;1.516;2023-12-04T04:41:27;5.73;;;1.87;;
72771;SDS011;60894;42.544;1.516;2023-12-04T04:43:54;3.95;;;1.35;;
72771;SDS011;60894;42.544;1.516;2023-12-04T04:46:21;3.97;;;1.50;;
72771;SDS011;60894;42.544;1.516;2023-12-04T04:48:50;4.32;;;1.50;;
72771;SDS011;60894;42.544;1.516;2023-12-04T04:51:17;3.53;;;1.48;;
72771;SDS011;60894;42.544;1.516;2023-12-04T04:53:44;5.73;;;1.80;;
72771;SDS011;60894;42.544;1.516;2023-12-04T04:56:11;6.53;;;1.50;;
72771;SDS011;60894;42.544;1.516;2023-12-04T04:58:40;6.25;;;1.67;;
72771;SDS011;60894;42.544;1.516;2023-12-04T05:01:07;6.32;;;1.63;;
72771;SDS011;60894;42.544;1.516;2023-12-04T05:03:35;3.92;;;1.20;;
72771;SDS011;60894;42.544;1.516;2023-12-04T05:06:02;3.33;;;1.00;;
72771;SDS011;60894;42.544;1.516;2023-12-04T05:08:33;3.28;;;1.30;;
72771;SDS011;60894;42.544;1.516;2023-12-04T05:11:00;2.67;;;1.10;;
72771;SDS011;60894;42.544;1.516;2023-12-04T05:13:27;3.15;;;1.30;;
72771;SDS011;60894;42.544;1.516;2023-12-04T05:15:58;3.17;;;1.10;;
72771;SDS011;60894;42.544;1.516;2023-12-04T05:18:25;4.10;;;1.17;;
72771;SDS011;60894;42.544;1.516;2023-12-04T05:20:54;4.40;;;1.40;;
72771;SDS011;60894;42.544;1.516;2023-12-04T05:23:21;4.82;;;1.60;;
72771;SDS011;60894;42.544;1.516;2023-12-04T05:25:48;4.75;;;1.17;;
72771;SDS011;60894;42.544;1.516;2023-12-04T05:28:15;3.72;;;1.45;;
72771;SDS011;60894;42.544;1.516;2023-12-04T05:30:42;4.80;;;1.50;;
72771;SDS011;60894;42.544;1.516;2023-12-04T05:33:11;6.95;;;1.15;;
72771;SDS011;60894;42.544;1.516;2023-12-04T05:35:38;3.83;;;1.42;;
72771;SDS011;60894;42.544;1.516;2023-12-04T05:38:05;4.63;;;1.45;;
72771;SDS011;60894;42.544;1.516;2023-12-04T05:40:33;4.38;;;1.60;;
72771;SDS011;60894;42.544;1.516;2023-12-04T05:43:00;6.07;;;1.67;;
72771;SDS011;60894;42.544;1.516;2023-12-04T05:45:27;4.75;;;2.08;;
72771;SDS011;60894;42.544;1.516;2023-12-04T05:47:54;6.38;;;2.22;;
72771;SDS011;60894;42.544;1.516;2023-12-04T05:50:23;4.78;;;1.98;;
72771;SDS011;60894;42.544;1.516;2023-12-04T05:52:50;5.30;;;1.80;;
72771;SDS011;60894;42.544;1.516;2023-12-04T05:55:17;5.33;;;1.80;;
72771;SDS011;60894;42.544;1.516;2023-12-04T05:57:45;5.53;;;1.75;;
72771;SDS011;60894;42.544;1.516;2023-12-04T06:00:12;4.78;;;1.52;;
72771;SDS011;60894;42.544;1.516;2023-12-04T06:02:40;4.53;;;1.63;;
72771;SDS011;60894;42.544;1.516;2023-12-04T06:05:08;13.25;;;1.90;;
72771;SDS011;60894;42.544;1.516;2023-12-04T06:07:36;4.20;;;1.90;;
72771;SDS011;60894;42.544;1.516;2023-12-04T06:10:04;5.47;;;1.67;;
72771;SDS011;60894;42.544;1.516;2023-12-04T06:12:33;6.47;;;2.05;;
72771;SDS011;60894;42.544;1.516;2023-12-04T06:15:00;6.82;;;2.10;;
72771;SDS011;60894;42.544;1.516;2023-12-04T06:17:28;5.78;;;2.25;;
72771;SDS011;60894;42.544;1.516;2023-12-04T06:19:55;12.00;;;3.00;;
72771;SDS011;60894;42.544;1.516;2023-12-04T06:22:22;9.00;;;2.40;;
72771;SDS011;60894;42.544;1.516;2023-12-04T06:24:51;7.25;;;2.17;;
72771;SDS011;60894;42.544;1.516;2023-12-04T06:27:19;7.47;;;2.17;;
72771;SDS011;60894;42.544;1.516;2023-12-04T06:29:46;7.22;;;2.42;;
72771;SDS011;60894;42.544;1.516;2023-12-04T06:32:15;6.43;;;2.50;;
72771;SDS011;60894;42.544;1.516;2023-12-04T06:34:44;11.30;;;3.00;;
72771;SDS011;60894;42.544;1.516;2023-12-04T06:37:12;20.10;;;3.88;;
72771;SDS011;60894;42.544;1.516;2023-12-04T06:39:39;9.57;;;3.58;;
72771;SDS011;60894;42.544;1.516;2023-12-04T06:42:10;8.05;;;4.10;;
72771;SDS011;60894;42.544;1.516;2023-12-04T06:44:38;7.43;;;2.90;;
72771;SDS011;60894;42.544;1.516;2023-12-04T06:47:05;9.30;;;4.50;;
72771;SDS011;60894;42.544;1.516;2023-12-04T06:49:34;7.25;;;2.60;;
72771;SDS011;60894;42.544;1.516;2023-12-04T06:52:01;8.85;;;2.33;;
72771;SDS011;60894;42.544;1.516;2023-12-04T06:54:29;6.20;;;2.30;;
72771;SDS011;60894;42.544;1.516;2023-12-04T06:56:56;6.80;;;2.60;;
72771;SDS011;60894;42.544;1.516;2023-12-04T06:59:25;5.07;;;1.80;;
72771;SDS011;60894;42.544;1.516;2023-12-04T07:01:52;5.55;;;1.98;;
72771;SDS011;60894;42.544;1.516;2023-12-04T07:04:19;8.15;;;2.33;;
72771;SDS011;60894;42.544;1.516;2023-12-04T07:06:47;7.22;;;2.45;;
72771;SDS011;60894;42.544;1.516;2023-12-04T07:09:14;8.93;;;2.40;;
72771;SDS011;60894;42.544;1.516;2023-12-04T07:11:42;8.48;;;3.00;;
72771;SDS011;60894;42.544;1.516;2023-12-04T07:14:09;12.15;;;2.60;;
72771;SDS011;60894;42.544;1.516;2023-12-04T07:16:42;11.00;;;3.50;;
72771;SDS011;60894;42.544;1.516;2023-12-04T07:19:09;9.48;;;2.83;;
72771;SDS011;60894;42.544;1.516;2023-12-04T07:21:38;8.10;;;3.00;;
72771;SDS011;60894;42.544;1.516;2023-12-04T07:24:06;7.82;;;2.72;;
72771;SDS011;60894;42.544;1.516;2023-12-04T07:26:33;8.50;;;2.70;;
72771;SDS011;60894;42.544;1.516;2023-12-04T07:29:00;7.90;;;2.30;;
72771;SDS011;60894;42.544;1.516;2023-12-04T07:31:27;6.70;;;2.40;;
72771;SDS011;60894;42.544;1.516;2023-12-04T07:33:56;8.93;;;3.10;;
72771;SDS011;60894;42.544;1.516;2023-12-04T07:36:25;13.32;;;3.08;;
72771;SDS011;60894;42.544;1.516;2023-12-04T07:38:52;9.52;;;3.38;;
72771;SDS011;60894;42.544;1.516;2023-12-04T07:41:19;7.20;;;2.97;;
72771;SDS011;60894;42.544;1.516;2023-12-04T07:43:47;10.20;;;3.40;;
72771;SDS011;60894;42.544;1.516;2023-12-04T07:46:14;11.50;;;3.07;;
72771;SDS011;60894;42.544;1.516;2023-12-04T07:48:41;8.23;;;3.70;;
72771;SDS011;60894;42.544;1.516;2023-12-04T07:51:10;9.23;;;3.60;;
72771;SDS011;60894;42.544;1.516;2023-12-04T07:53:37;9.13;;;2.83;;
72771;SDS011;60894;42.544;1.516;2023-12-04T07:56:04;9.30;;;3.33;;
72771;SDS011;60894;42.544;1.516;2023-12-04T07:58:32;9.33;;;4.13;;
72771;SDS011;60894;42.544;1.516;2023-12-04T08:00:59;14.73;;;4.05;;
72771;SDS011;60894;42.544;1.516;2023-12-04T08:03:27;11.73;;;3.10;;
72771;SDS011;60894;42.544;1.516;2023-12-04T08:05:54;12.35;;;5.20;;
72771;SDS011;60894;42.544;1.516;2023-12-04T08:08:22;26.20;;;13.50;;
72771;SDS011;60894;42.544;1.516;2023-12-04T08:10:49;10.67;;;4.93;;
72771;SDS011;60894;42.544;1.516;2023-12-04T08:13:16;10.38;;;3.63;;
72771;SDS011;60894;42.544;1.516;2023-12-04T08:15:43;10.27;;;4.30;;
72771;SDS011;60894;42.544;1.516;2023-12-04T08:18:10;9.52;;;4.05;;
72771;SDS011;60894;42.544;1.516;2023-12-04T08:20:37;9.88;;;4.15;;
72771;SDS011;60894;42.544;1.516;2023-12-04T08:23:04;11.43;;;4.10;;
72771;SDS011;60894;42.544;1.516;2023-12-04T08:25:33;10.75;;;3.83;;
72771;SDS011;60894;42.544;1.516;2023-12-04T08:28:01;9.75;;;4.50;;
72771;SDS011;60894;42.544;1.516;2023-12-04T08:30:28;12.10;;;6.25;;
72771;SDS011;60894;42.544;1.516;2023-12-04T08:32:55;15.18;;;4.80;;
72771;SDS011;60894;42.544;1.516;2023-12-04T08:35:22;8.70;;;3.77;;
72771;SDS011;60894;42.544;1.516;2023-12-04T08:37:49;9.48;;;3.50;;
72771;SDS011;60894;42.544;1.516;2023-12-04T08:40:16;12.43;;;5.35;;
72771;SDS011;60894;42.544;1.516;2023-12-04T08:42:45;13.63;;;4.95;;
72771;SDS011;60894;42.544;1.516;2023-12-04T08:45:12;13.18;;;5.95;;
72771;SDS011;60894;42.544;1.516;2023-12-04T08:47:39;9.23;;;3.77;;
72771;SDS011;60894;42.544;1.516;2023-12-04T08:50:06;9.25;;;4.20;;
72771;SDS011;60894;42.544;1.516;2023-12-04T08:52:34;11.32;;;6.18;;
72771;SDS011;60894;42.544;1.516;2023-12-04T08:55:01;11.30;;;4.93;;
72771;SDS011;60894;42.544;1.516;2023-12-04T08:57:28;11.15;;;4.97;;
72771;SDS011;60894;42.544;1.516;2023-12-04T08:59:56;12.97;;;5.43;;
72771;SDS011;60894;42.544;1.516;2023-12-04T09:02:23;12.35;;;6.32;;
72771;SDS011;60894;42.544;1.516;2023-12-04T09:04:50;13.45;;;5.85;;
72771;SDS011;60894;42.544;1.516;2023-12-04T09:07:17;21.30;;;8.75;;
72771;SDS011;60894;42.544;1.516;2023-12-04T09:09:44;12.45;;;5.32;;
72771;SDS011;60894;42.544;1.516;2023-12-04T09:12:11;12.43;;;5.17;;
72771;SDS011;60894;42.544;1.516;2023-12-04T09:14:38;13.73;;;7.00;;
72771;SDS011;60894;42.544;1.516;2023-12-04T09:17:07;14.88;;;7.03;;
72771;SDS011;60894;42.544;1.516;2023-12-04T09:19:34;16.70;;;7.65;;
72771;SDS011;60894;42.544;1.516;2023-12-04T09:22:01;14.65;;;8.35;;
72771;SDS011;60894;42.544;1.516;2023-12-04T09:24:27;13.47;;;5.53;;
72771;SDS011;60894;42.544;1.516;2023-12-04T09:26:56;11.93;;;7.20;;
72771;SDS011;60894;42.544;1.516;2023-12-04T09:29:23;14.80;;;4.55;;
72771;SDS011;60894;42.544;1.516;2023-12-04T09:31:50;12.13;;;4.85;;
72771;SDS011;60894;42.544;1.516;2023-12-04T09:34:19;10.60;;;4.45;;
72771;SDS011;60894;42.544;1.516;2023-12-04T09:36:47;10.47;;;4.50;;
72771;SDS011;60894;42.544;1.516;2023-12-04T09:39:14;14.20;;;5.38;;
72771;SDS011;60894;42.544;1.516;2023-12-04T09:41:42;13.73;;;6.05;;
72771;SDS011;60894;42.544;1.516;2023-12-04T09:44:10;11.90;;;5.47;;
72771;SDS011;60894;42.544;1.516;2023-12-04T09:46:37;7.65;;;3.60;;
72771;SDS011;60894;42.544;1.516;2023-12-04T09:49:05;8.07;;;3.10;;
72771;SDS011;60894;42.544;1.516;2023-12-04T09:51:34;9.55;;;3.30;;
72771;SDS011;60894;42.544;1.516;2023-12-04T09:54:02;9.73;;;3.72;;
72771;SDS011;60894;42.544;1.516;2023-12-04T09:56:29;7.25;;;3.30;;
72771;SDS011;60894;42.544;1.516;2023-12-04T09:58:58;9.05;;;3.10;;
72771;SDS011;60894;42.544;1.516;2023-12-04T10:01:26;7.53;;;3.40;;
72771;SDS011;60894;42.544;1.516;2023-12-04T10:03:54;7.68;;;3.08;;
72771;SDS011;60894;42.544;1.516;2023-12-04T10:08:54;6.88;;;2.63;;
72771;SDS011;60894;42.544;1.516;2023-12-04T10:11:22;5.95;;;2.30;;
72771;SDS011;60894;42.544;1.516;2023-12-04T10:13:49;7.93;;;2.60;;
72771;SDS011;60894;42.544;1.516;2023-12-04T10:16:31;5.63;;;2.50;;
72771;SDS011;60894;42.544;1.516;2023-12-04T10:19:13;8.07;;;2.60;;
72771;SDS011;60894;42.544;1.516;2023-12-04T10:21:45;5.82;;;2.35;;
72771;SDS011;60894;42.544;1.516;2023-12-04T10:24:26;6.57;;;2.50;;
72771;SDS011;60894;42.544;1.516;2023-12-04T10:26:55;8.37;;;2.80;;
72771;SDS011;60894;42.544;1.516;2023-12-04T10:29:22;8.82;;;3.58;;
72771;SDS011;60894;42.544;1.516;2023-12-04T10:31:50;10.32;;;3.63;;
72771;SDS011;60894;42.544;1.516;2023-12-04T10:34:19;6.47;;;2.42;;
72771;SDS011;60894;42.544;1.516;2023-12-04T10:36:46;7.20;;;2.50;;
72771;SDS011;60894;42.544;1.516;2023-12-04T10:39:13;5.27;;;2.40;;
72771;SDS011;60894;42.544;1.516;2023-12-04T10:41:41;10.55;;;2.38;;
72771;SDS011;60894;42.544;1.516;2023-12-04T10:44:08;5.35;;;2.10;;
72771;SDS011;60894;42.544;1.516;2023-12-04T10:46:35;4.93;;;1.88;;
72771;SDS011;60894;42.544;1.516;2023-12-04T10:49:03;6.13;;;3.33;;
72771;SDS011;60894;42.544;1.516;2023-12-04T10:51:30;7.80;;;1.77;;
72771;SDS011;60894;42.544;1.516;2023-12-04T10:53:58;4.90;;;1.63;;
72771;SDS011;60894;42.544;1.516;2023-12-04T10:56:27;5.57;;;1.80;;
72771;SDS011;60894;42.544;1.516;2023-12-04T10:59:01;6.40;;;1.95;;
72771;SDS011;60894;42.544;1.516;2023-12-04T11:01:29;5.68;;;1.80;;
72771;SDS011;60894;42.544;1.516;2023-12-04T11:03:58;6.53;;;2.10;;
72771;SDS011;60894;42.544;1.516;2023-12-04T11:06:32;4.50;;;1.40;;
72771;SDS011;60894;42.544;1.516;2023-12-04T11:09:05;4.88;;;1.45;;
72771;SDS011;60894;42.544;1.516;2023-12-04T11:11:34;5.65;;;1.90;;
72771;SDS011;60894;42.544;1.516;2023-12-04T11:14:06;5.53;;;1.55;;
72771;SDS011;60894;42.544;1.516;2023-12-04T11:16:37;2.67;;;1.50;;
72771;SDS011;60894;42.544;1.516;2023-12-04T11:19:18;3.42;;;1.85;;
72771;SDS011;60894;42.544;1.516;2023-12-04T11:21:50;3.95;;;1.67;;
72771;SDS011;60894;42.544;1.516;2023-12-04T11:24:19;2.45;;;0.90;;
72771;SDS011;60894;42.544;1.516;2023-12-04T11:26:48;5.63;;;1.30;;
72771;SDS011;60894;42.544;1.516;2023-12-04T11:29:17;3.97;;;0.87;;
72771;SDS011;60894;42.544;1.516;2023-12-04T11:31:46;2.47;;;1.20;;
72771;SDS011;60894;42.544;1.516;2023-12-04T11:34:13;5.40;;;1.30;;
72771;SDS011;60894;42.544;1.516;2023-12-04T11:36:40;1.35;;;0.80;;
72771;SDS011;60894;42.544;1.516;2023-12-04T11:39:09;1.95;;;0.90;;
72771;SDS011;60894;42.544;1.516;2023-12-04T11:41:36;4.07;;;1.10;;
72771;SDS011;60894;42.544;1.516;2023-12-04T11:44:04;5.28;;;1.10;;
72771;SDS011;60894;42.544;1.516;2023-12-04T11:46:41;2.92;;;1.17;;
72771;SDS011;60894;42.544;1.516;2023-12-04T11:49:27;2.38;;;1.00;;
72771;SDS011;60894;42.544;1.516;2023-12-04T11:51:55;6.10;;;3.63;;
72771;SDS011;60894;42.544;1.516;2023-12-04T11:54:22;3.60;;;1.03;;
72771;SDS011;60894;42.544;1.516;2023-12-04T11:57:00;5.25;;;1.50;;
72771;SDS011;60894;42.544;1.516;2023-12-04T11:59:42;1.98;;;1.08;;
72771;SDS011;60894;42.544;1.516;2023-12-04T12:02:11;2.30;;;1.00;;
72771;SDS011;60894;42.544;1.516;2023-12-04T12:04:38;4.40;;;1.67;;
72771;SDS011;60894;42.544;1.516;2023-12-04T12:07:05;3.20;;;1.47;;
72771;SDS011;60894;42.544;1.516;2023-12-04T12:09:32;5.93;;;1.42;;
72771;SDS011;60894;42.544;1.516;2023-12-04T12:11:59;3.03;;;1.20;;
72771;SDS011;60894;42.544;1.516;2023-12-04T12:14:27;3.60;;;1.38;;
72771;SDS011;60894;42.544;1.516;2023-12-04T12:16:55;2.40;;;1.08;;
72771;SDS011;60894;42.544;1.516;2023-12-04T12:19:23;2.60;;;1.00;;
72771;SDS011;60894;42.544;1.516;2023-12-04T12:21:50;7.85;;;1.70;;
72771;SDS011;60894;42.544;1.516;2023-12-04T12:24:17;2.38;;;1.20;;
72771;SDS011;60894;42.544;1.516;2023-12-04T12:26:44;3.60;;;1.30;;
72771;SDS011;60894;42.544;1.516;2023-12-04T12:29:12;2.05;;;0.95;;
72771;SDS011;60894;42.544;1.516;2023-12-04T12:31:39;3.37;;;1.10;;
72771;SDS011;60894;42.544;1.516;2023-12-04T12:34:06;2.55;;;0.90;;
72771;SDS011;60894;42.544;1.516;2023-12-04T12:36:34;3.58;;;1.00;;
72771;SDS011;60894;42.544;1.516;2023-12-04T12:39:01;4.10;;;1.17;;
72771;SDS011;60894;42.544;1.516;2023-12-04T12:41:29;2.58;;;1.00;;
72771;SDS011;60894;42.544;1.516;2023-12-04T12:43:56;3.30;;;1.13;;
72771;SDS011;60894;42.544;1.516;2023-12-04T12:46:25;2.95;;;1.00;;
72771;SDS011;60894;42.544;1.516;2023-12-04T12:48:52;3.45;;;1.30;;
72771;SDS011;60894;42.544;1.516;2023-12-04T12:51:19;2.97;;;1.08;;
72771;SDS011;60894;42.544;1.516;2023-12-04T12:53:49;1.63;;;1.13;;
72771;SDS011;60894;42.544;1.516;2023-12-04T12:56:16;3.37;;;1.20;;
72771;SDS011;60894;42.544;1.516;2023-12-04T12:58:43;4.07;;;1.20;;
72771;SDS011;60894;42.544;1.516;2023-12-04T13:01:10;3.80;;;1.10;;
72771;SDS011;60894;42.544;1.516;2023-12-04T13:03:37;2.33;;;1.20;;
72771;SDS011;60894;42.544;1.516;2023-12-04T13:06:04;3.22;;;1.30;;
72771;SDS011;60894;42.544;1.516;2023-12-04T13:08:32;3.63;;;1.17;;
72771;SDS011;60894;42.544;1.516;2023-12-04T13:11:00;2.72;;;1.10;;
72771;SDS011;60894;42.544;1.516;2023-12-04T13:13:27;2.50;;;0.90;;
72771;SDS011;60894;42.544;1.516;2023-12-04T13:15:55;3.70;;;1.50;;
72771;SDS011;60894;42.544;1.516;2023-12-04T13:18:22;2.70;;;1.05;;
72771;SDS011;60894;42.544;1.516;2023-12-04T13:20:49;5.27;;;2.07;;
72771;SDS011;60894;42.544;1.516;2023-12-04T13:23:16;4.25;;;2.17;;
72771;SDS011;60894;42.544;1.516;2023-12-04T13:25:43;3.85;;;1.48;;
72771;SDS011;60894;42.544;1.516;2023-12-04T13:28:11;2.25;;;0.90;;
72771;SDS011;60894;42.544;1.516;2023-12-04T13:30:38;3.90;;;1.60;;
72771;SDS011;60894;42.544;1.516;2023-12-04T13:33:05;3.37;;;1.30;;
72771;SDS011;60894;42.544;1.516;2023-12-04T13:35:33;2.50;;;1.20;;
72771;SDS011;60894;42.544;1.516;2023-12-04T13:38:00;3.38;;;1.27;;
72771;SDS011;60894;42.544;1.516;2023-12-04T13:40:27;3.20;;;1.00;;
72771;SDS011;60894;42.544;1.516;2023-12-04T13:42:57;3.33;;;1.20;;
72771;SDS011;60894;42.544;1.516;2023-12-04T13:45:42;2.53;;;1.10;;
72771;SDS011;60894;42.544;1.516;2023-12-04T13:48:09;2.63;;;1.10;;
72771;SDS011;60894;42.544;1.516;2023-12-04T13:50:37;3.10;;;1.00;;
72771;SDS011;60894;42.544;1.516;2023-12-04T13:53:04;6.55;;;1.38;;
72771;SDS011;60894;42.544;1.516;2023-12-04T13:55:32;4.15;;;1.35;;
72771;SDS011;60894;42.544;1.516;2023-12-04T13:58:14;3.93;;;1.27;;
72771;SDS011;60894;42.544;1.516;2023-12-04T14:00:57;3.08;;;1.27;;
72771;SDS011;60894;42.544;1.516;2023-12-04T14:03:24;3.47;;;1.27;;
72771;SDS011;60894;42.544;1.516;2023-12-04T14:05:53;1.58;;;1.00;;
72771;SDS011;60894;42.544;1.516;2023-12-04T14:08:20;4.38;;;1.50;;
72771;SDS011;60894;42.544;1.516;2023-12-04T14:10:46;5.27;;;1.40;;
72771;SDS011;60894;42.544;1.516;2023-12-04T14:13:13;5.97;;;1.92;;
72771;SDS011;60894;42.544;1.516;2023-12-04T14:15:40;6.18;;;1.70;;
72771;SDS011;60894;42.544;1.516;2023-12-04T14:18:09;5.18;;;1.80;;
72771;SDS011;60894;42.544;1.516;2023-12-04T14:20:36;10.02;;;5.30;;
72771;SDS011;60894;42.544;1.516;2023-12-04T14:23:03;6.73;;;1.60;;
72771;SDS011;60894;42.544;1.516;2023-12-04T14:25:30;7.00;;;2.50;;
72771;SDS011;60894;42.544;1.516;2023-12-04T14:27:57;6.72;;;2.63;;
72771;SDS011;60894;42.544;1.516;2023-12-04T14:30:24;6.30;;;2.38;;
72771;SDS011;60894;42.544;1.516;2023-12-04T14:32:52;3.97;;;1.40;;
72771;SDS011;60894;42.544;1.516;2023-12-04T14:35:21;2.53;;;1.30;;
72771;SDS011;60894;42.544;1.516;2023-12-04T14:37:48;6.05;;;2.05;;
72771;SDS011;60894;42.544;1.516;2023-12-04T14:40:15;6.13;;;2.13;;
72771;SDS011;60894;42.544;1.516;2023-12-04T14:42:43;5.90;;;2.00;;
72771;SDS011;60894;42.544;1.516;2023-12-04T14:45:10;5.82;;;2.20;;
72771;SDS011;60894;42.544;1.516;2023-12-04T14:47:37;6.53;;;2.10;;
72771;SDS011;60894;42.544;1.516;2023-12-04T14:50:04;9.52;;;2.70;;
72771;SDS011;60894;42.544;1.516;2023-12-04T14:52:33;4.28;;;1.60;;